WetterOnline ( https://www.wetteronline.de )

Wetter aktuell Neuhaus

Aktuelles Wetter: Boizenburg (46m)

6-stündlich | Neueste Meldungen
Ortszeit Temperatur Wetter
Mi, 21.02. 7:00 8.0° C Sprühregen
Mi, 21.02. 1:00 8.1° C bewölkt
Di, 20.02. 19:00 8.4° C wolkig
Di, 20.02. 13:00 8.5° C bedeckt
Di, 20.02. 7:00 6.3° C bedeckt
Di, 20.02. 1:00 7.4° C leichter Regen
Mo, 19.02. 19:00 8.6° C leichter Regen
Mo, 19.02. 13:00 8.3° C leichter Regen
Ortszeit Temperatur Wetter
Mi, 21.02. 7:00 8.0° C Sprühregen
Mi, 21.02. 6:50 8.0° C Sprühregen
Mi, 21.02. 6:40 8.2° C Sprühregen
Mi, 21.02. 6:30 8.3° C bedeckt
Mi, 21.02. 6:20 8.3° C bedeckt
Mi, 21.02. 6:10 8.4° C bedeckt
Mi, 21.02. 6:00 8.4° C bedeckt
Mi, 21.02. 5:30 8.5° C bedeckt
Mi, 21.02. 5:00 8.4° C bedeckt
Mi, 21.02. 4:30 8.2° C bedeckt
Mi, 21.02. 4:00 8.2° C bedeckt
Ortszeit Relative Feuchte Sichtweite
Mi, 21.02. 7:00 92% 7 km
Mi, 21.02. 1:00 90% 13 km
Di, 20.02. 19:00 81% 23 km
Di, 20.02. 13:00 79% 24 km
Di, 20.02. 7:00 85% 21 km
Di, 20.02. 1:00 95% 5.0 km
Mo, 19.02. 19:00 93% 35 km
Mo, 19.02. 13:00 92% 3.2 km
Ortszeit Relative Feuchte Sichtweite
Mi, 21.02. 7:00 92% 7 km
Mi, 21.02. 6:50 92% -
Mi, 21.02. 6:40 90% -
Mi, 21.02. 6:30 88% 11 km
Mi, 21.02. 6:20 88% -
Mi, 21.02. 6:10 88% -
Mi, 21.02. 6:00 88% 11 km
Mi, 21.02. 5:30 88% 12 km
Mi, 21.02. 5:00 89% 12 km
Mi, 21.02. 4:30 90% 12 km
Mi, 21.02. 4:00 91% 9 km
Ortszeit Niederschlagsmenge Niederschlagsart
Mi, 21.02. 7:00 0.1 l/m2 in 12 Std. Regen
Mi, 21.02. 1:00 0.1 l/m2 in 6 Std. Regen
Di, 20.02. 19:00 0.1 l/m2 in 12 Std. Regen
Di, 20.02. 13:00 0.0 l/m2 in 6 Std. -
Di, 20.02. 7:00 2 l/m2 in 12 Std. Regen
Di, 20.02. 1:00 2 l/m2 in 6 Std. Regen
Mo, 19.02. 19:00 0.2 l/m2 in 12 Std. Regen
Mo, 19.02. 13:00 0.1 l/m2 in 6 Std. Regen
Ortszeit Niederschlagsmenge Niederschlagsart
Mi, 21.02. 7:00 <0.05 l/m2 in 1 Std. Regen
Mi, 21.02. 6:50 keine Meldung -
Mi, 21.02. 6:40 keine Meldung -
Mi, 21.02. 6:30 0.0 l/m2 in 30 Min -
Mi, 21.02. 6:20 keine Meldung -
Mi, 21.02. 6:10 keine Meldung -
Mi, 21.02. 6:00 <0.05 l/m2 in 1 Std. Sprühregen
Mi, 21.02. 5:30 0.0 l/m2 in 30 Min -
Mi, 21.02. 5:00 0.0 l/m2 in 1 Std. -
Mi, 21.02. 4:30 0.0 l/m2 in 30 Min -
Mi, 21.02. 4:00 <0.05 l/m2 in 1 Std. Sprühregen
Ortszeit Stärke Spitze Richtung
km/h Bft. km/h Grad Sektor
Mi, 21.02. 7:00 20 4 44 240° SW
Mi, 21.02. 1:00 20 4 31 230° SW
Di, 20.02. 19:00 15 3 37 230° SW
Di, 20.02. 13:00 19 3 37 260° W
Di, 20.02. 7:00 14 3 40 290° W
Di, 20.02. 1:00 13 3 28 270° W
Mo, 19.02. 19:00 11 2 43 250° W
Mo, 19.02. 13:00 17 3 44 280° W
Ortszeit Stärke Spitze Richtung
km/h Bft. km/h Grad Sektor
Mi, 21.02. 7:00 20 4 43 240° SW
Mi, 21.02. 6:50 20 4 - 240° SW
Mi, 21.02. 6:40 22 4 - 230° SW
Mi, 21.02. 6:30 24 4 43 240° SW
Mi, 21.02. 6:20 24 4 - 240° SW
Mi, 21.02. 6:10 26 4 - 230° SW
Mi, 21.02. 6:00 22 4 43 230° SW
Mi, 21.02. 5:30 24 4 37 240° SW
Mi, 21.02. 5:00 22 4 44 220° SW
Mi, 21.02. 4:30 20 4 33 220° SW
Mi, 21.02. 4:00 18 3 36 220° SW
Ortszeit Untergrenze Bedeckung Gattung
total tief tief mittel hoch
Mi, 21.02. 7:00 270 m 8/8 8/8 - - -
Mi, 21.02. 1:00 330 m 7/8 7/8 - - -
Di, 20.02. 19:00 630 m 8/8 2/8 - - -
Di, 20.02. 13:00 510 m 8/8 8/8 - - -
Di, 20.02. 7:00 480 m 8/8 8/8 - - -
Di, 20.02. 1:00 270 m 8/8 8/8 - - -
Mo, 19.02. 19:00 420 m 8/8 8/8 - - -
Mo, 19.02. 13:00 270 m 8/8 8/8 - - -
Ortszeit Bedeckungsgrad in Achtel und Wolkenuntergrenze
Mi, 21.02. 7:00 7(270m) 8(420m)
Mi, 21.02. 6:50 7(270m) 8(420m)
Mi, 21.02. 6:40 7
Mi, 21.02. 6:30 8(300m)
Mi, 21.02. 6:20 8(300m)
Mi, 21.02. 6:10 8
Mi, 21.02. 6:00 8(330m)
Mi, 21.02. 5:30 8(330m)
Mi, 21.02. 5:00 8(330m) 8(1140m) 8(5100m)
Mi, 21.02. 4:30 8(270m)
Mi, 21.02. 4:00 8(270m)
Ortszeit Luftdruck NN (hPa) Tendenz (hPa in 3 Std.)
Mi, 21.02. 7:00 1015 - 1,1
Mi, 21.02. 1:00 1019 - 1,6
Di, 20.02. 19:00 1022 - 0,7
Di, 20.02. 13:00 1023 - 0,2
Di, 20.02. 7:00 1023 + 1,9
Di, 20.02. 1:00 1021 + 0,4
Mo, 19.02. 19:00 1020 + 0,2
Mo, 19.02. 13:00 1021 + 0,2
Ortszeit Luftdruck NN (hPa) Tendenz (hPa in 3 Std.)
Mi, 21.02. 7:00 1015 - 1,1
Mi, 21.02. 6:50 1015 keine Meldung
Mi, 21.02. 6:40 1015 keine Meldung
Mi, 21.02. 6:30 1015 - 1,6
Mi, 21.02. 6:20 1015 keine Meldung
Mi, 21.02. 6:10 1015 keine Meldung
Mi, 21.02. 6:00 1015 - 2,1
Mi, 21.02. 5:30 1016 - 1,9
Mi, 21.02. 5:00 1015 - 2,7
Mi, 21.02. 4:30 1016 - 2,9
Mi, 21.02. 4:00 1016 - 2,7
Ortszeit Schneehöhe (cm)
Mi, 21.02. 7:00 0
Mi, 21.02. 1:00 0
Di, 20.02. 19:00 0
Di, 20.02. 13:00 0
Di, 20.02. 7:00 0
Di, 20.02. 1:00 0
Mo, 19.02. 19:00 0
Mo, 19.02. 13:00 0
Ortszeit Schneehöhe (cm)
Mi, 21.02. 7:00 0
Mi, 21.02. 6:50 0
Mi, 21.02. 6:40 -
Mi, 21.02. 6:30 0
Mi, 21.02. 6:20 0
Mi, 21.02. 6:10 -
Mi, 21.02. 6:00 0
Mi, 21.02. 5:30 0
Mi, 21.02. 5:00 0
Mi, 21.02. 4:30 0
Mi, 21.02. 4:00 0
Link zu dieser Seite / Seite empfehlen

Das Wetter in ...